createdAt,value
2023-01-17T00:02:19.443Z,97644.22
2023-01-17T00:06:40.592Z,97646.91
2023-01-17T00:10:43.600Z,97649.84
2023-01-17T00:14:48.194Z,97665.44
2023-01-17T00:19:05.001Z,97665.19
2023-01-17T00:23:26.804Z,97659.78
2023-01-17T00:27:28.607Z,97659.78
2023-01-17T00:31:31.763Z,97678.09
2023-01-17T00:35:34.339Z,97679.44
2023-01-17T00:39:36.279Z,97693.72
2023-01-17T00:43:57.834Z,97692.63
2023-01-17T00:48:19.969Z,97705.28
2023-01-17T00:52:41.705Z,97714.69
2023-01-17T00:57:03.231Z,97717.13
2023-01-17T01:01:26.501Z,97715.78
2023-01-17T01:05:49.829Z,97717.66
2023-01-17T01:10:10.430Z,97726.28
2023-01-17T01:14:31.112Z,97727.59
2023-01-17T01:18:52.434Z,97738.63
2023-01-17T01:23:14.342Z,97749.66
2023-01-17T01:27:35.057Z,97760.13
2023-01-17T01:31:55.389Z,97772.50
2023-01-17T01:35:58.468Z,97780.28
2023-01-17T01:40:03.375Z,97787.28
2023-01-17T01:44:27.080Z,97792.13
2023-01-17T01:48:36.156Z,97806.31
2023-01-17T01:52:45.300Z,97817.59
2023-01-17T01:56:51.730Z,97825.94
2023-01-17T02:00:55.111Z,97846.31
2023-01-17T02:05:01.928Z,97848.72
2023-01-17T02:09:09.506Z,97860.81
2023-01-17T02:13:17.331Z,97863.25
2023-01-17T02:17:32.948Z,97877.19
2023-01-17T02:21:45.679Z,97893.03
2023-01-17T02:26:25.533Z,97920.16
2023-01-17T02:30:34.315Z,97914.47
2023-01-17T02:34:47.103Z,97923.25
2023-01-17T02:38:57.391Z,97934.44
2023-01-17T02:43:05.547Z,97933.50
2023-01-17T02:47:23.253Z,97934.97
2023-01-17T02:51:48.913Z,97947.44
2023-01-17T02:55:59.793Z,97955.72
2023-01-17T03:00:05.719Z,97976.88
2023-01-17T03:04:16.157Z,97974.63
2023-01-17T03:08:21.591Z,97977.50
2023-01-17T03:12:28.727Z,97989.88
2023-01-17T03:16:34.104Z,97993.91
2023-01-17T03:20:38.869Z,97992.78
2023-01-17T03:24:42.103Z,98004.63
2023-01-17T03:28:45.067Z,98010.53
2023-01-17T03:32:48.202Z,98021.31
2023-01-17T03:36:54.347Z,98029.69
2023-01-17T03:40:57.986Z,98027.84
2023-01-17T03:45:00.856Z,98039.75
2023-01-17T03:49:03.864Z,98036.84
2023-01-17T03:53:08.221Z,98045.50
2023-01-17T03:57:11.143Z,98051.66
2023-01-17T04:01:14.642Z,98057.31
2023-01-17T04:05:18.046Z,98065.88
2023-01-17T04:09:22.469Z,98074.19
2023-01-17T04:13:25.544Z,98061.53
2023-01-17T04:17:28.825Z,98077.53
2023-01-17T04:21:31.829Z,98073.66
2023-01-17T04:25:36.341Z,98081.22
2023-01-17T04:29:39.320Z,98085.53
2023-01-17T04:33:43.952Z,98094.91
2023-01-17T04:37:46.897Z,98095.78
2023-01-17T04:41:51.560Z,98102.03
2023-01-17T04:45:56.512Z,98100.22
2023-01-17T04:49:59.532Z,98098.63
2023-01-17T04:54:02.615Z,98111.28
2023-01-17T04:58:06.925Z,98113.72
2023-01-17T05:02:10.046Z,98107.84
2023-01-17T05:06:13.063Z,98108.88
2023-01-17T05:10:16.132Z,98104.78
2023-01-17T05:14:20.717Z,98105.56
2023-01-17T05:18:23.758Z,98129.91
2023-01-17T05:22:26.974Z,98144.88
2023-01-17T05:26:31.404Z,98147.47
2023-01-17T05:30:35.749Z,98154.44
2023-01-17T05:34:38.648Z,98148.19
2023-01-17T05:38:41.681Z,98156.16
2023-01-17T05:42:46.982Z,98158.53
2023-01-17T05:46:51.472Z,98157.28
2023-01-17T05:50:55.283Z,98167.94
2023-01-17T05:54:58.203Z,98167.63
2023-01-17T05:59:01.261Z,98168.13
2023-01-17T06:03:05.879Z,98183.88
2023-01-17T06:07:08.685Z,98187.06
2023-01-17T06:11:11.959Z,98190.81
2023-01-17T06:15:17.581Z,98198.34
2023-01-17T06:19:21.901Z,98205.31
2023-01-17T06:23:25.982Z,98207.72
2023-01-17T06:27:29.170Z,98204.47
2023-01-17T06:31:32.255Z,98205.75
2023-01-17T06:35:38.254Z,98222.59
2023-01-17T06:39:40.991Z,98227.78
2023-01-17T06:43:44.046Z,98232.00
2023-01-17T06:47:47.015Z,98232.75
2023-01-17T06:51:51.415Z,98232.94
2023-01-17T06:55:56.844Z,98237.13
2023-01-17T06:59:59.696Z,98242.41
2023-01-17T07:04:02.689Z,98241.03
2023-01-17T07:08:07.125Z,98246.09
2023-01-17T07:12:10.299Z,98261.09
2023-01-17T07:16:14.563Z,98265.31
2023-01-17T07:20:17.814Z,98274.91
2023-01-17T07:24:22.782Z,98273.84
2023-01-17T07:28:26.931Z,98285.25
2023-01-17T07:32:29.861Z,98285.50
2023-01-17T07:36:33.175Z,98287.84
2023-01-17T07:40:42.049Z,98283.06
2023-01-17T07:44:45.518Z,98283.66
2023-01-17T07:48:48.551Z,98283.66
2023-01-17T07:52:51.593Z,98285.75
2023-01-17T07:56:55.924Z,98285.97
2023-01-17T08:01:03.580Z,98288.44
2023-01-17T08:05:07.063Z,98279.34
2023-01-17T08:09:09.961Z,98285.50
2023-01-17T08:13:14.407Z,98280.31
2023-01-17T08:17:20.313Z,98299.03
2023-01-17T08:21:23.958Z,98299.84
2023-01-17T08:25:27.360Z,98301.97
2023-01-17T08:29:31.888Z,98303.00
2023-01-17T08:33:35.045Z,98289.72
2023-01-17T08:37:39.084Z,98306.34
2023-01-17T08:41:42.309Z,98307.75
2023-01-17T08:45:48.271Z,98305.88
2023-01-17T08:49:52.540Z,98312.84
2023-01-17T08:53:57.051Z,98326.91
2023-01-17T08:58:00.182Z,98327.69
2023-01-17T09:02:14.997Z,98328.06
2023-01-17T09:06:18.655Z,98330.72
2023-01-17T09:10:23.257Z,98324.63
2023-01-17T09:14:26.135Z,98325.94
2023-01-17T09:18:31.574Z,98327.00
2023-01-17T09:22:36.051Z,98336.66
2023-01-17T09:26:39.471Z,98338.59
2023-01-17T09:30:42.499Z,98333.66
2023-01-17T09:34:47.933Z,98342.00
2023-01-17T09:38:51.072Z,98334.06
2023-01-17T09:43:01.284Z,98346.41
2023-01-17T09:47:12.213Z,98357.22
2023-01-17T09:51:22.374Z,98365.25
2023-01-17T09:55:25.416Z,98369.41
2023-01-17T09:59:35.865Z,98370.03
2023-01-17T10:03:46.160Z,98374.94
2023-01-17T10:08:04.823Z,98381.56
2023-01-17T10:12:21.633Z,98377.72
2023-01-17T10:16:40.426Z,98388.50
2023-01-17T10:20:53.120Z,98374.94
2023-01-17T10:25:24.298Z,98379.22
2023-01-17T10:29:32.609Z,98380.38
2023-01-17T10:33:42.312Z,98389.22
2023-01-17T10:37:45.768Z,98387.09
2023-01-17T10:41:58.990Z,98392.06
2023-01-17T10:46:03.335Z,98386.41
2023-01-17T10:50:07.104Z,98389.91
2023-01-17T10:54:20.398Z,98392.41
2023-01-17T10:58:26.887Z,98390.03
2023-01-17T11:02:33.853Z,98389.78
2023-01-17T11:06:49.680Z,98388.81
2023-01-17T11:11:05.105Z,98377.03
2023-01-17T11:15:25.752Z,98380.03
2023-01-17T11:19:32.200Z,98370.47
2023-01-17T11:23:35.083Z,98372.13
2023-01-17T11:27:41.844Z,98377.31
2023-01-17T11:31:46.396Z,98371.22
2023-01-17T11:35:49.236Z,98372.69
2023-01-17T11:39:52.238Z,98369.25
2023-01-17T11:43:57.491Z,98373.09
2023-01-17T11:48:24.718Z,98369.38
2023-01-17T11:52:37.482Z,98367.59
2023-01-17T11:56:44.130Z,98370.41
2023-01-17T12:00:53.049Z,98362.91
2023-01-17T12:05:04.660Z,98355.66
2023-01-17T12:09:23.009Z,98348.44
2023-01-17T12:13:57.644Z,98344.75
2023-01-17T12:18:20.219Z,98345.25
2023-01-17T12:22:37.173Z,98341.81
2023-01-17T12:26:46.709Z,98345.06
2023-01-17T12:31:07.905Z,98347.25
2023-01-17T12:35:16.275Z,98342.41
2023-01-17T12:39:26.073Z,98342.75
2023-01-17T12:43:33.464Z,98342.00
2023-01-17T12:47:42.865Z,98349.28
2023-01-17T12:51:50.164Z,98341.00
2023-01-17T12:56:01.042Z,98351.97
2023-01-17T13:00:07.939Z,98350.09
2023-01-17T13:04:19.732Z,98352.03
2023-01-17T13:08:28.350Z,98360.41
2023-01-17T13:12:38.056Z,98355.84
2023-01-17T13:16:45.373Z,98359.09
2023-01-17T13:21:06.030Z,98351.09
2023-01-17T13:25:25.141Z,98362.38
2023-01-17T13:29:37.975Z,98359.50
2023-01-17T13:33:59.055Z,98354.94
2023-01-17T13:38:23.960Z,98357.34
2023-01-17T13:42:36.855Z,98349.03
2023-01-17T13:51:11.538Z,98349.63
2023-01-17T13:55:45.560Z,98355.81
2023-01-17T13:59:48.692Z,98349.63
2023-01-17T14:04:07.891Z,98356.59
2023-01-17T14:08:18.114Z,98364.97
2023-01-17T14:12:39.917Z,98365.81
2023-01-17T14:16:46.184Z,98376.56
2023-01-17T14:21:05.401Z,98369.53
2023-01-17T14:25:17.541Z,98377.28
2023-01-17T14:29:58.932Z,98378.59
2023-01-17T14:34:13.209Z,98379.91
2023-01-17T14:38:22.829Z,98387.72
2023-01-17T14:42:31.651Z,98389.06
2023-01-17T14:46:36.021Z,98393.91
2023-01-17T14:50:40.337Z,98392.03
2023-01-17T14:54:49.370Z,98394.50
2023-01-17T14:59:16.851Z,98400.66
2023-01-17T15:03:20.023Z,98404.66
2023-01-17T15:07:25.859Z,98408.66
2023-01-17T15:11:30.681Z,98413.97
2023-01-17T15:15:38.308Z,98410.41
2023-01-17T15:19:45.590Z,98412.00
2023-01-17T15:23:51.404Z,98414.34
2023-01-17T15:27:54.351Z,98410.56
2023-01-17T15:32:00.348Z,98409.13
2023-01-17T15:36:05.727Z,98412.84
2023-01-17T15:40:18.599Z,98416.88
2023-01-17T15:44:46.446Z,98414.09
2023-01-17T15:48:53.465Z,98417.22
2023-01-17T15:53:00.292Z,98429.72
2023-01-17T15:57:17.940Z,98421.00
2023-01-17T16:01:26.654Z,98415.00
2023-01-17T16:05:44.239Z,98423.22
2023-01-17T16:09:47.803Z,98430.66
2023-01-17T16:13:50.801Z,98433.50
2023-01-17T16:17:58.706Z,98430.97
2023-01-17T16:22:03.974Z,98440.25
2023-01-17T16:26:10.888Z,98441.97
2023-01-17T16:30:16.167Z,98445.06
2023-01-17T16:34:20.277Z,98448.63
2023-01-17T16:38:24.685Z,98442.25
2023-01-17T16:42:29.524Z,98450.13
2023-01-17T16:46:34.891Z,98449.72
2023-01-17T16:50:41.836Z,98457.06
2023-01-17T16:54:46.477Z,98450.56
2023-01-17T16:58:53.541Z,98464.94
2023-01-17T17:02:56.664Z,98458.91
2023-01-17T17:07:01.438Z,98457.66
2023-01-17T17:11:14.595Z,98475.63
2023-01-17T17:15:18.369Z,98468.97
2023-01-17T17:19:21.515Z,98472.97
2023-01-17T17:23:24.869Z,98479.25
2023-01-17T17:27:29.192Z,98480.78
2023-01-17T17:31:33.259Z,98488.00
2023-01-17T17:35:36.829Z,98483.47
2023-01-17T17:39:40.017Z,98484.72
2023-01-17T17:43:44.163Z,98504.28
2023-01-17T17:47:46.920Z,98511.50
2023-01-17T17:51:49.939Z,98517.91
2023-01-17T17:55:53.760Z,98535.13
2023-01-17T17:59:59.721Z,98526.97
2023-01-17T18:04:04.187Z,98537.34
2023-01-17T18:08:07.288Z,98543.94
2023-01-17T18:12:10.243Z,98542.56
2023-01-17T18:16:17.052Z,98546.28
2023-01-17T18:20:20.301Z,98555.81
2023-01-17T18:24:24.808Z,98558.94
2023-01-17T18:28:28.269Z,98564.97
2023-01-17T18:32:59.910Z,98574.72
2023-01-17T18:37:02.914Z,98582.41
2023-01-17T18:41:07.177Z,98585.19
2023-01-17T18:45:11.359Z,98583.41
2023-01-17T18:49:19.003Z,98585.13
2023-01-17T18:53:21.984Z,98585.59
2023-01-17T18:57:25.034Z,98587.09
2023-01-17T19:01:30.224Z,98574.19
2023-01-17T19:05:36.604Z,98581.03
2023-01-17T19:09:40.082Z,98582.59
2023-01-17T19:13:44.022Z,98577.16
2023-01-17T19:17:47.941Z,98589.69
2023-01-17T19:21:53.770Z,98597.56
2023-01-17T19:25:58.574Z,98595.13
2023-01-17T19:30:02.538Z,98592.44
2023-01-17T19:34:15.868Z,98600.09
2023-01-17T19:38:20.290Z,98600.31
2023-01-17T19:42:23.542Z,98598.22
2023-01-17T19:46:27.577Z,98601.13
2023-01-17T19:50:30.677Z,98602.41
2023-01-17T19:54:35.058Z,98601.22
2023-01-17T19:58:39.673Z,98602.69
2023-01-17T20:02:43.495Z,98601.75
2023-01-17T20:06:47.400Z,98605.06
2023-01-17T20:10:53.033Z,98608.19
2023-01-17T20:14:56.025Z,98602.03
2023-01-17T20:19:00.307Z,98603.28
2023-01-17T20:23:05.596Z,98608.63
2023-01-17T20:27:10.791Z,98613.97
2023-01-17T20:31:15.641Z,98617.69
2023-01-17T20:35:28.515Z,98607.44
2023-01-17T20:39:32.709Z,98620.66
2023-01-17T20:43:37.684Z,98605.28
2023-01-17T20:47:41.235Z,98610.19
2023-01-17T20:51:47.231Z,98605.69
2023-01-17T20:55:57.208Z,98611.03
2023-01-17T21:00:01.379Z,98626.19
2023-01-17T21:04:05.393Z,98625.63
2023-01-17T21:08:09.296Z,98623.59
2023-01-17T21:12:13.311Z,98634.72
2023-01-17T21:16:20.472Z,98633.75
2023-01-17T21:20:27.273Z,98643.03
2023-01-17T21:24:30.239Z,98631.97
2023-01-17T21:28:36.744Z,98641.25
2023-01-17T21:32:41.194Z,98647.00
2023-01-17T21:36:44.540Z,98660.22
2023-01-17T21:40:47.471Z,98657.97
2023-01-17T21:44:50.914Z,98656.78
2023-01-17T21:48:57.740Z,98668.47
2023-01-17T21:53:00.793Z,98654.31
2023-01-17T21:57:21.282Z,98667.88
2023-01-17T22:01:25.851Z,98662.59
2023-01-17T22:05:30.725Z,98664.28
2023-01-17T22:09:33.645Z,98668.03
2023-01-17T22:13:37.296Z,98670.75
2023-01-17T22:17:42.295Z,98679.19
2023-01-17T22:21:47.031Z,98678.97
2023-01-17T22:25:50.217Z,98694.75
2023-01-17T22:29:53.372Z,98689.03
2023-01-17T22:33:58.043Z,98701.97
2023-01-17T22:38:02.454Z,98709.56
2023-01-17T22:42:06.274Z,98701.75
2023-01-17T22:46:10.860Z,98701.75
2023-01-17T22:50:14.100Z,98706.06
2023-01-17T22:54:19.409Z,98698.66
2023-01-17T22:58:22.993Z,98697.84
2023-01-17T23:02:27.993Z,98693.56
2023-01-17T23:06:33.284Z,98690.88
2023-01-17T23:10:55.204Z,98698.91
2023-01-17T23:15:15.816Z,98704.63
2023-01-17T23:19:24.815Z,98686.63
2023-01-17T23:23:27.725Z,98690.31
2023-01-17T23:27:51.312Z,98687.88
2023-01-17T23:31:54.289Z,98687.28
2023-01-17T23:35:57.315Z,98690.97
2023-01-17T23:40:00.550Z,98692.00
2023-01-17T23:44:05.052Z,98689.53
2023-01-17T23:48:10.606Z,98688.72
2023-01-17T23:52:14.229Z,98688.72
2023-01-17T23:56:21.259Z,98692.41
